sensor_id;sensor_type;location;lat;lon;timestamp;P1;durP1;ratioP1;P2;durP2;ratioP2
4812;SDS011;2420;51.202;8.698;2022-11-30T00:00:13;26.33;;;11.30;;
4812;SDS011;2420;51.202;8.698;2022-11-30T00:02:40;24.65;;;11.98;;
4812;SDS011;2420;51.202;8.698;2022-11-30T00:05:06;27.30;;;11.27;;
4812;SDS011;2420;51.202;8.698;2022-11-30T00:07:32;20.25;;;10.48;;
4812;SDS011;2420;51.202;8.698;2022-11-30T00:09:58;25.33;;;11.68;;
4812;SDS011;2420;51.202;8.698;2022-11-30T00:12:23;30.42;;;12.80;;
4812;SDS011;2420;51.202;8.698;2022-11-30T00:14:49;27.52;;;12.35;;
4812;SDS011;2420;51.202;8.698;2022-11-30T00:17:14;22.83;;;11.45;;
4812;SDS011;2420;51.202;8.698;2022-11-30T00:19:41;23.88;;;11.52;;
4812;SDS011;2420;51.202;8.698;2022-11-30T00:22:06;32.08;;;14.32;;
4812;SDS011;2420;51.202;8.698;2022-11-30T00:24:32;33.42;;;15.25;;
4812;SDS011;2420;51.202;8.698;2022-11-30T00:26:57;38.65;;;16.88;;
4812;SDS011;2420;51.202;8.698;2022-11-30T00:29:23;32.92;;;15.60;;
4812;SDS011;2420;51.202;8.698;2022-11-30T00:31:48;32.85;;;14.65;;
4812;SDS011;2420;51.202;8.698;2022-11-30T00:34:14;32.05;;;14.38;;
4812;SDS011;2420;51.202;8.698;2022-11-30T00:36:39;30.58;;;14.63;;
4812;SDS011;2420;51.202;8.698;2022-11-30T00:39:05;30.65;;;13.65;;
4812;SDS011;2420;51.202;8.698;2022-11-30T00:41:30;31.50;;;13.85;;
4812;SDS011;2420;51.202;8.698;2022-11-30T00:43:56;23.77;;;12.18;;
4812;SDS011;2420;51.202;8.698;2022-11-30T00:46:21;27.58;;;12.75;;
4812;SDS011;2420;51.202;8.698;2022-11-30T00:48:47;32.50;;;13.18;;
4812;SDS011;2420;51.202;8.698;2022-11-30T00:51:12;25.13;;;11.70;;
4812;SDS011;2420;51.202;8.698;2022-11-30T00:53:39;23.77;;;12.23;;
4812;SDS011;2420;51.202;8.698;2022-11-30T00:56:05;26.83;;;11.88;;
4812;SDS011;2420;51.202;8.698;2022-11-30T00:58:31;28.25;;;12.23;;
4812;SDS011;2420;51.202;8.698;2022-11-30T01:00:57;30.50;;;12.85;;
4812;SDS011;2420;51.202;8.698;2022-11-30T01:03:22;26.75;;;12.90;;
4812;SDS011;2420;51.202;8.698;2022-11-30T01:05:48;31.30;;;13.68;;
4812;SDS011;2420;51.202;8.698;2022-11-30T01:08:14;28.20;;;13.05;;
4812;SDS011;2420;51.202;8.698;2022-11-30T01:10:40;28.40;;;12.02;;
4812;SDS011;2420;51.202;8.698;2022-11-30T01:13:07;25.30;;;12.23;;
4812;SDS011;2420;51.202;8.698;2022-11-30T01:15:38;27.02;;;12.40;;
4812;SDS011;2420;51.202;8.698;2022-11-30T01:18:06;25.70;;;12.52;;
4812;SDS011;2420;51.202;8.698;2022-11-30T01:20:32;27.17;;;11.43;;
4812;SDS011;2420;51.202;8.698;2022-11-30T01:22:57;26.80;;;12.27;;
4812;SDS011;2420;51.202;8.698;2022-11-30T01:25:23;23.08;;;12.18;;
4812;SDS011;2420;51.202;8.698;2022-11-30T01:27:49;24.45;;;11.25;;
4812;SDS011;2420;51.202;8.698;2022-11-30T01:30:15;23.88;;;11.35;;
4812;SDS011;2420;51.202;8.698;2022-11-30T01:32:41;27.40;;;12.48;;
4812;SDS011;2420;51.202;8.698;2022-11-30T01:35:06;28.80;;;13.20;;
4812;SDS011;2420;51.202;8.698;2022-11-30T01:37:32;29.40;;;12.63;;
4812;SDS011;2420;51.202;8.698;2022-11-30T01:39:58;28.42;;;13.45;;
4812;SDS011;2420;51.202;8.698;2022-11-30T01:42:24;27.20;;;12.52;;
4812;SDS011;2420;51.202;8.698;2022-11-30T01:44:53;24.48;;;12.27;;
4812;SDS011;2420;51.202;8.698;2022-11-30T01:47:36;26.92;;;12.95;;
4812;SDS011;2420;51.202;8.698;2022-11-30T01:50:36;23.88;;;11.88;;
4812;SDS011;2420;51.202;8.698;2022-11-30T01:53:01;25.20;;;11.80;;
4812;SDS011;2420;51.202;8.698;2022-11-30T01:55:36;27.23;;;11.95;;
4812;SDS011;2420;51.202;8.698;2022-11-30T01:58:07;27.75;;;12.38;;
4812;SDS011;2420;51.202;8.698;2022-11-30T02:00:36;25.98;;;11.48;;
4812;SDS011;2420;51.202;8.698;2022-11-30T02:03:06;24.67;;;11.82;;
4812;SDS011;2420;51.202;8.698;2022-11-30T02:05:41;23.85;;;10.80;;
4812;SDS011;2420;51.202;8.698;2022-11-30T02:08:07;26.55;;;12.43;;
4812;SDS011;2420;51.202;8.698;2022-11-30T02:10:35;24.77;;;11.75;;
4812;SDS011;2420;51.202;8.698;2022-11-30T02:22:23;22.50;;;11.25;;
4812;SDS011;2420;51.202;8.698;2022-11-30T02:25:17;25.08;;;12.00;;
4812;SDS011;2420;51.202;8.698;2022-11-30T02:30:53;24.75;;;11.77;;
4812;SDS011;2420;51.202;8.698;2022-11-30T02:33:22;26.35;;;11.18;;
4812;SDS011;2420;51.202;8.698;2022-11-30T02:35:52;31.95;;;12.02;;
4812;SDS011;2420;51.202;8.698;2022-11-30T02:38:20;24.58;;;11.73;;
4812;SDS011;2420;51.202;8.698;2022-11-30T02:40:47;28.27;;;11.65;;
4812;SDS011;2420;51.202;8.698;2022-11-30T02:43:13;21.13;;;11.60;;
4812;SDS011;2420;51.202;8.698;2022-11-30T02:48:19;22.95;;;11.88;;
4812;SDS011;2420;51.202;8.698;2022-11-30T02:51:07;20.70;;;10.48;;
4812;SDS011;2420;51.202;8.698;2022-11-30T02:53:35;22.50;;;10.52;;
4812;SDS011;2420;51.202;8.698;2022-11-30T02:56:01;22.02;;;10.57;;
4812;SDS011;2420;51.202;8.698;2022-11-30T02:58:28;22.83;;;10.65;;
4812;SDS011;2420;51.202;8.698;2022-11-30T03:00:54;20.10;;;10.75;;
4812;SDS011;2420;51.202;8.698;2022-11-30T03:03:19;20.63;;;9.88;;
4812;SDS011;2420;51.202;8.698;2022-11-30T03:05:45;20.52;;;11.00;;
4812;SDS011;2420;51.202;8.698;2022-11-30T03:08:11;25.25;;;11.55;;
4812;SDS011;2420;51.202;8.698;2022-11-30T03:10:36;22.83;;;11.07;;
4812;SDS011;2420;51.202;8.698;2022-11-30T03:13:02;25.27;;;11.32;;
4812;SDS011;2420;51.202;8.698;2022-11-30T03:15:28;20.92;;;11.00;;
4812;SDS011;2420;51.202;8.698;2022-11-30T03:17:53;20.95;;;10.75;;
4812;SDS011;2420;51.202;8.698;2022-11-30T03:20:19;21.15;;;10.30;;
4812;SDS011;2420;51.202;8.698;2022-11-30T03:22:44;18.35;;;10.30;;
4812;SDS011;2420;51.202;8.698;2022-11-30T03:25:10;22.08;;;11.13;;
4812;SDS011;2420;51.202;8.698;2022-11-30T03:27:35;19.23;;;10.48;;
4812;SDS011;2420;51.202;8.698;2022-11-30T03:30:01;20.85;;;9.85;;
4812;SDS011;2420;51.202;8.698;2022-11-30T03:32:27;20.83;;;9.63;;
4812;SDS011;2420;51.202;8.698;2022-11-30T03:34:54;21.17;;;9.88;;
4812;SDS011;2420;51.202;8.698;2022-11-30T03:37:20;17.80;;;9.77;;
4812;SDS011;2420;51.202;8.698;2022-11-30T03:39:46;18.05;;;9.73;;
4812;SDS011;2420;51.202;8.698;2022-11-30T03:42:11;17.50;;;9.80;;
4812;SDS011;2420;51.202;8.698;2022-11-30T03:44:37;20.70;;;9.75;;
4812;SDS011;2420;51.202;8.698;2022-11-30T03:47:03;18.83;;;8.88;;
4812;SDS011;2420;51.202;8.698;2022-11-30T03:49:28;17.70;;;8.95;;
4812;SDS011;2420;51.202;8.698;2022-11-30T03:51:54;18.27;;;9.40;;
4812;SDS011;2420;51.202;8.698;2022-11-30T03:54:19;20.58;;;10.10;;
4812;SDS011;2420;51.202;8.698;2022-11-30T03:56:45;20.50;;;9.32;;
4812;SDS011;2420;51.202;8.698;2022-11-30T03:59:11;17.83;;;8.77;;
4812;SDS011;2420;51.202;8.698;2022-11-30T04:01:36;17.83;;;8.70;;
4812;SDS011;2420;51.202;8.698;2022-11-30T04:04:04;15.63;;;8.85;;
4812;SDS011;2420;51.202;8.698;2022-11-30T04:06:30;19.70;;;9.65;;
4812;SDS011;2420;51.202;8.698;2022-11-30T04:08:56;17.42;;;8.93;;
4812;SDS011;2420;51.202;8.698;2022-11-30T04:11:21;16.33;;;9.15;;
4812;SDS011;2420;51.202;8.698;2022-11-30T04:13:47;17.13;;;9.20;;
4812;SDS011;2420;51.202;8.698;2022-11-30T04:16:12;17.95;;;8.50;;
4812;SDS011;2420;51.202;8.698;2022-11-30T04:18:38;17.52;;;8.70;;
4812;SDS011;2420;51.202;8.698;2022-11-30T04:21:04;17.48;;;8.68;;
4812;SDS011;2420;51.202;8.698;2022-11-30T04:23:32;13.50;;;7.65;;
4812;SDS011;2420;51.202;8.698;2022-11-30T04:26:04;14.20;;;8.15;;
4812;SDS011;2420;51.202;8.698;2022-11-30T04:28:31;15.20;;;8.60;;
4812;SDS011;2420;51.202;8.698;2022-11-30T04:30:56;12.63;;;7.15;;
4812;SDS011;2420;51.202;8.698;2022-11-30T04:33:24;14.05;;;7.53;;
4812;SDS011;2420;51.202;8.698;2022-11-30T04:35:51;17.02;;;8.75;;
4812;SDS011;2420;51.202;8.698;2022-11-30T04:38:21;15.95;;;7.93;;
4812;SDS011;2420;51.202;8.698;2022-11-30T04:40:47;16.15;;;7.80;;
4812;SDS011;2420;51.202;8.698;2022-11-30T04:43:13;14.48;;;7.90;;
4812;SDS011;2420;51.202;8.698;2022-11-30T04:45:39;17.75;;;7.95;;
4812;SDS011;2420;51.202;8.698;2022-11-30T04:48:05;15.15;;;7.80;;
4812;SDS011;2420;51.202;8.698;2022-11-30T04:50:31;16.58;;;8.52;;
4812;SDS011;2420;51.202;8.698;2022-11-30T04:52:58;16.08;;;8.60;;
4812;SDS011;2420;51.202;8.698;2022-11-30T04:55:23;17.98;;;8.32;;
4812;SDS011;2420;51.202;8.698;2022-11-30T04:57:49;17.30;;;8.23;;
4812;SDS011;2420;51.202;8.698;2022-11-30T05:00:15;14.32;;;8.18;;
4812;SDS011;2420;51.202;8.698;2022-11-30T05:02:42;14.88;;;7.47;;
4812;SDS011;2420;51.202;8.698;2022-11-30T05:05:08;16.13;;;7.65;;
4812;SDS011;2420;51.202;8.698;2022-11-30T05:07:34;13.35;;;7.07;;
4812;SDS011;2420;51.202;8.698;2022-11-30T05:10:00;16.65;;;7.95;;
4812;SDS011;2420;51.202;8.698;2022-11-30T05:12:25;13.00;;;7.13;;
4812;SDS011;2420;51.202;8.698;2022-11-30T05:14:51;14.95;;;7.88;;
4812;SDS011;2420;51.202;8.698;2022-11-30T05:17:16;12.68;;;7.05;;
4812;SDS011;2420;51.202;8.698;2022-11-30T05:19:42;13.20;;;7.53;;
4812;SDS011;2420;51.202;8.698;2022-11-30T05:22:07;13.30;;;7.05;;
4812;SDS011;2420;51.202;8.698;2022-11-30T05:24:33;13.57;;;6.95;;
4812;SDS011;2420;51.202;8.698;2022-11-30T05:26:58;15.20;;;7.05;;
4812;SDS011;2420;51.202;8.698;2022-11-30T05:29:24;14.20;;;6.88;;
4812;SDS011;2420;51.202;8.698;2022-11-30T05:31:50;12.55;;;6.50;;
4812;SDS011;2420;51.202;8.698;2022-11-30T05:34:15;14.60;;;6.43;;
4812;SDS011;2420;51.202;8.698;2022-11-30T05:36:41;11.85;;;6.05;;
4812;SDS011;2420;51.202;8.698;2022-11-30T05:39:06;11.90;;;6.25;;
4812;SDS011;2420;51.202;8.698;2022-11-30T05:41:32;11.35;;;5.75;;
4812;SDS011;2420;51.202;8.698;2022-11-30T05:43:57;11.15;;;5.68;;
4812;SDS011;2420;51.202;8.698;2022-11-30T05:46:23;11.10;;;5.40;;
4812;SDS011;2420;51.202;8.698;2022-11-30T05:48:48;10.95;;;5.18;;
4812;SDS011;2420;51.202;8.698;2022-11-30T05:51:15;11.18;;;5.43;;
4812;SDS011;2420;51.202;8.698;2022-11-30T05:53:43;10.82;;;5.63;;
4812;SDS011;2420;51.202;8.698;2022-11-30T05:56:10;11.05;;;5.82;;
4812;SDS011;2420;51.202;8.698;2022-11-30T05:58:37;9.40;;;5.55;;
4812;SDS011;2420;51.202;8.698;2022-11-30T06:01:03;10.43;;;5.50;;
4812;SDS011;2420;51.202;8.698;2022-11-30T06:03:30;12.10;;;5.68;;
4812;SDS011;2420;51.202;8.698;2022-11-30T06:05:57;17.38;;;8.27;;
4812;SDS011;2420;51.202;8.698;2022-11-30T06:08:23;18.25;;;8.18;;
4812;SDS011;2420;51.202;8.698;2022-11-30T06:10:49;15.35;;;8.30;;
4812;SDS011;2420;51.202;8.698;2022-11-30T06:13:14;13.43;;;7.85;;
4812;SDS011;2420;51.202;8.698;2022-11-30T06:15:40;18.13;;;8.07;;
4812;SDS011;2420;51.202;8.698;2022-11-30T06:18:06;16.02;;;7.10;;
4812;SDS011;2420;51.202;8.698;2022-11-30T06:20:32;15.27;;;7.68;;
4812;SDS011;2420;51.202;8.698;2022-11-30T06:22:58;14.93;;;7.97;;
4812;SDS011;2420;51.202;8.698;2022-11-30T06:25:24;13.98;;;7.80;;
4812;SDS011;2420;51.202;8.698;2022-11-30T06:27:50;18.30;;;9.57;;
4812;SDS011;2420;51.202;8.698;2022-11-30T06:30:17;20.25;;;9.98;;
4812;SDS011;2420;51.202;8.698;2022-11-30T06:32:46;17.83;;;9.45;;
4812;SDS011;2420;51.202;8.698;2022-11-30T06:35:13;16.33;;;8.30;;
4812;SDS011;2420;51.202;8.698;2022-11-30T06:37:38;14.95;;;8.15;;
4812;SDS011;2420;51.202;8.698;2022-11-30T06:40:05;16.65;;;8.77;;
4812;SDS011;2420;51.202;8.698;2022-11-30T06:42:31;18.77;;;9.48;;
4812;SDS011;2420;51.202;8.698;2022-11-30T06:44:57;17.25;;;9.48;;
4812;SDS011;2420;51.202;8.698;2022-11-30T06:47:23;18.35;;;9.18;;
4812;SDS011;2420;51.202;8.698;2022-11-30T06:49:49;15.93;;;7.82;;
4812;SDS011;2420;51.202;8.698;2022-11-30T06:52:15;15.05;;;8.18;;
4812;SDS011;2420;51.202;8.698;2022-11-30T06:54:40;13.95;;;8.18;;
4812;SDS011;2420;51.202;8.698;2022-11-30T06:57:06;14.35;;;8.07;;
4812;SDS011;2420;51.202;8.698;2022-11-30T06:59:31;18.83;;;8.60;;
4812;SDS011;2420;51.202;8.698;2022-11-30T07:01:57;19.40;;;8.05;;
4812;SDS011;2420;51.202;8.698;2022-11-30T07:04:22;15.50;;;7.60;;
4812;SDS011;2420;51.202;8.698;2022-11-30T07:06:48;16.48;;;7.93;;
4812;SDS011;2420;51.202;8.698;2022-11-30T07:09:13;17.52;;;8.05;;
4812;SDS011;2420;51.202;8.698;2022-11-30T07:11:39;14.77;;;6.75;;
4812;SDS011;2420;51.202;8.698;2022-11-30T07:14:04;17.70;;;8.77;;
4812;SDS011;2420;51.202;8.698;2022-11-30T07:16:30;18.55;;;7.90;;
4812;SDS011;2420;51.202;8.698;2022-11-30T07:18:55;17.38;;;8.00;;
4812;SDS011;2420;51.202;8.698;2022-11-30T07:21:21;15.60;;;7.18;;
4812;SDS011;2420;51.202;8.698;2022-11-30T07:23:46;16.20;;;7.50;;
4812;SDS011;2420;51.202;8.698;2022-11-30T07:26:30;14.13;;;6.80;;
4812;SDS011;2420;51.202;8.698;2022-11-30T07:28:57;12.57;;;6.60;;
4812;SDS011;2420;51.202;8.698;2022-11-30T07:31:23;13.25;;;6.80;;
4812;SDS011;2420;51.202;8.698;2022-11-30T07:33:54;10.80;;;5.72;;
4812;SDS011;2420;51.202;8.698;2022-11-30T07:36:21;9.65;;;5.28;;
4812;SDS011;2420;51.202;8.698;2022-11-30T07:38:49;11.32;;;5.45;;
4812;SDS011;2420;51.202;8.698;2022-11-30T07:41:14;11.32;;;5.68;;
4812;SDS011;2420;51.202;8.698;2022-11-30T07:43:40;8.15;;;5.22;;
4812;SDS011;2420;51.202;8.698;2022-11-30T07:46:06;15.10;;;5.38;;
4812;SDS011;2420;51.202;8.698;2022-11-30T07:48:33;10.95;;;4.75;;
4812;SDS011;2420;51.202;8.698;2022-11-30T07:51:06;9.60;;;5.07;;
4812;SDS011;2420;51.202;8.698;2022-11-30T07:53:34;9.38;;;5.20;;
4812;SDS011;2420;51.202;8.698;2022-11-30T07:56:00;12.48;;;5.28;;
4812;SDS011;2420;51.202;8.698;2022-11-30T07:58:27;9.77;;;5.00;;
4812;SDS011;2420;51.202;8.698;2022-11-30T08:00:53;10.00;;;5.40;;
4812;SDS011;2420;51.202;8.698;2022-11-30T08:03:19;10.45;;;5.20;;
4812;SDS011;2420;51.202;8.698;2022-11-30T08:05:44;12.35;;;5.57;;
4812;SDS011;2420;51.202;8.698;2022-11-30T08:08:10;22.85;;;6.32;;
4812;SDS011;2420;51.202;8.698;2022-11-30T08:10:35;16.75;;;5.82;;
4812;SDS011;2420;51.202;8.698;2022-11-30T08:13:01;15.02;;;5.60;;
4812;SDS011;2420;51.202;8.698;2022-11-30T08:15:26;10.63;;;5.13;;
4812;SDS011;2420;51.202;8.698;2022-11-30T08:17:52;10.00;;;4.72;;
4812;SDS011;2420;51.202;8.698;2022-11-30T08:20:19;10.95;;;4.47;;
4812;SDS011;2420;51.202;8.698;2022-11-30T08:22:44;9.45;;;4.75;;
4812;SDS011;2420;51.202;8.698;2022-11-30T08:25:10;11.90;;;4.88;;
4812;SDS011;2420;51.202;8.698;2022-11-30T08:27:35;9.15;;;5.05;;
4812;SDS011;2420;51.202;8.698;2022-11-30T08:30:01;9.20;;;4.93;;
4812;SDS011;2420;51.202;8.698;2022-11-30T08:32:27;10.38;;;5.07;;
4812;SDS011;2420;51.202;8.698;2022-11-30T08:34:52;18.50;;;6.47;;
4812;SDS011;2420;51.202;8.698;2022-11-30T08:37:18;18.83;;;5.30;;
4812;SDS011;2420;51.202;8.698;2022-11-30T08:39:43;10.68;;;5.10;;
4812;SDS011;2420;51.202;8.698;2022-11-30T08:42:09;10.02;;;4.90;;
4812;SDS011;2420;51.202;8.698;2022-11-30T08:44:34;10.45;;;5.35;;
4812;SDS011;2420;51.202;8.698;2022-11-30T08:46:59;8.90;;;5.13;;
4812;SDS011;2420;51.202;8.698;2022-11-30T08:49:25;8.48;;;4.97;;
4812;SDS011;2420;51.202;8.698;2022-11-30T08:51:52;10.07;;;5.30;;
4812;SDS011;2420;51.202;8.698;2022-11-30T08:54:19;8.35;;;4.85;;
4812;SDS011;2420;51.202;8.698;2022-11-30T08:56:44;9.18;;;5.30;;
4812;SDS011;2420;51.202;8.698;2022-11-30T08:59:10;8.98;;;5.53;;
4812;SDS011;2420;51.202;8.698;2022-11-30T09:01:35;10.32;;;5.45;;
4812;SDS011;2420;51.202;8.698;2022-11-30T09:04:01;9.35;;;5.10;;
4812;SDS011;2420;51.202;8.698;2022-11-30T09:06:28;9.20;;;5.15;;
4812;SDS011;2420;51.202;8.698;2022-11-30T09:08:55;10.07;;;5.57;;
4812;SDS011;2420;51.202;8.698;2022-11-30T09:13:48;9.18;;;4.97;;
4812;SDS011;2420;51.202;8.698;2022-11-30T09:16:15;10.80;;;5.03;;
4812;SDS011;2420;51.202;8.698;2022-11-30T09:18:42;8.18;;;4.50;;
4812;SDS011;2420;51.202;8.698;2022-11-30T09:21:09;11.77;;;6.63;;
4812;SDS011;2420;51.202;8.698;2022-11-30T09:23:37;9.57;;;5.30;;
4812;SDS011;2420;51.202;8.698;2022-11-30T09:26:04;12.13;;;6.72;;
4812;SDS011;2420;51.202;8.698;2022-11-30T09:28:32;12.20;;;6.93;;
4812;SDS011;2420;51.202;8.698;2022-11-30T09:31:10;14.85;;;7.63;;
4812;SDS011;2420;51.202;8.698;2022-11-30T09:33:54;12.00;;;6.95;;
4812;SDS011;2420;51.202;8.698;2022-11-30T09:36:22;15.02;;;8.57;;
4812;SDS011;2420;51.202;8.698;2022-11-30T09:38:51;13.20;;;7.57;;
4812;SDS011;2420;51.202;8.698;2022-11-30T09:41:24;15.35;;;10.23;;
4812;SDS011;2420;51.202;8.698;2022-11-30T09:44:21;12.27;;;7.18;;
4812;SDS011;2420;51.202;8.698;2022-11-30T09:49:48;10.98;;;6.55;;
4812;SDS011;2420;51.202;8.698;2022-11-30T09:52:19;14.90;;;8.43;;
4812;SDS011;2420;51.202;8.698;2022-11-30T09:54:50;16.70;;;7.05;;
4812;SDS011;2420;51.202;8.698;2022-11-30T09:57:26;12.52;;;6.18;;
4812;SDS011;2420;51.202;8.698;2022-11-30T10:00:16;8.18;;;4.22;;
4812;SDS011;2420;51.202;8.698;2022-11-30T10:02:45;8.82;;;4.20;;
4812;SDS011;2420;51.202;8.698;2022-11-30T10:05:17;8.55;;;4.55;;
4812;SDS011;2420;51.202;8.698;2022-11-30T10:07:59;9.82;;;5.13;;
4812;SDS011;2420;51.202;8.698;2022-11-30T10:10:46;8.20;;;4.38;;
4812;SDS011;2420;51.202;8.698;2022-11-30T10:16:37;6.88;;;3.30;;
4812;SDS011;2420;51.202;8.698;2022-11-30T10:19:08;5.85;;;3.58;;
4812;SDS011;2420;51.202;8.698;2022-11-30T10:30:02;5.10;;;3.10;;
4812;SDS011;2420;51.202;8.698;2022-11-30T10:32:36;5.05;;;2.92;;
4812;SDS011;2420;51.202;8.698;2022-11-30T10:38:10;4.68;;;3.25;;
4812;SDS011;2420;51.202;8.698;2022-11-30T10:40:45;8.60;;;5.22;;
4812;SDS011;2420;51.202;8.698;2022-11-30T10:43:17;8.68;;;4.95;;
4812;SDS011;2420;51.202;8.698;2022-11-30T10:45:45;10.27;;;4.68;;
4812;SDS011;2420;51.202;8.698;2022-11-30T10:51:01;6.80;;;4.10;;
4812;SDS011;2420;51.202;8.698;2022-11-30T10:53:28;10.88;;;4.82;;
4812;SDS011;2420;51.202;8.698;2022-11-30T10:56:05;9.45;;;4.07;;
4812;SDS011;2420;51.202;8.698;2022-11-30T10:58:37;8.90;;;4.75;;
4812;SDS011;2420;51.202;8.698;2022-11-30T11:01:07;8.05;;;4.60;;
4812;SDS011;2420;51.202;8.698;2022-11-30T11:03:34;8.30;;;5.03;;
4812;SDS011;2420;51.202;8.698;2022-11-30T11:09:21;7.57;;;4.45;;
4812;SDS011;2420;51.202;8.698;2022-11-30T11:11:51;6.93;;;4.18;;
4812;SDS011;2420;51.202;8.698;2022-11-30T11:14:20;8.23;;;4.60;;
4812;SDS011;2420;51.202;8.698;2022-11-30T11:16:57;7.03;;;4.45;;
4812;SDS011;2420;51.202;8.698;2022-11-30T11:19:32;7.60;;;4.25;;
4812;SDS011;2420;51.202;8.698;2022-11-30T11:22:04;8.07;;;4.57;;
4812;SDS011;2420;51.202;8.698;2022-11-30T11:24:52;7.50;;;4.30;;
4812;SDS011;2420;51.202;8.698;2022-11-30T11:27:35;10.30;;;5.22;;
4812;SDS011;2420;51.202;8.698;2022-11-30T11:30:06;11.40;;;5.97;;
4812;SDS011;2420;51.202;8.698;2022-11-30T11:32:32;11.07;;;6.22;;
4812;SDS011;2420;51.202;8.698;2022-11-30T11:34:58;10.63;;;6.60;;
4812;SDS011;2420;51.202;8.698;2022-11-30T11:42:48;14.88;;;6.95;;
4812;SDS011;2420;51.202;8.698;2022-11-30T11:45:16;13.15;;;6.95;;
4812;SDS011;2420;51.202;8.698;2022-11-30T11:47:46;13.27;;;7.30;;
4812;SDS011;2420;51.202;8.698;2022-11-30T11:50:35;13.52;;;7.63;;
4812;SDS011;2420;51.202;8.698;2022-11-30T11:53:15;14.98;;;7.28;;
4812;SDS011;2420;51.202;8.698;2022-11-30T11:55:58;16.48;;;7.97;;
4812;SDS011;2420;51.202;8.698;2022-11-30T11:58:34;13.18;;;7.40;;
4812;SDS011;2420;51.202;8.698;2022-11-30T12:01:16;13.73;;;7.57;;
4812;SDS011;2420;51.202;8.698;2022-11-30T12:07:08;14.50;;;7.55;;
4812;SDS011;2420;51.202;8.698;2022-11-30T12:09:44;13.30;;;7.32;;
4812;SDS011;2420;51.202;8.698;2022-11-30T12:12:37;13.73;;;7.53;;
4812;SDS011;2420;51.202;8.698;2022-11-30T12:15:02;15.23;;;7.82;;
4812;SDS011;2420;51.202;8.698;2022-11-30T12:20:46;14.98;;;7.82;;
4812;SDS011;2420;51.202;8.698;2022-11-30T12:23:41;13.98;;;7.25;;
4812;SDS011;2420;51.202;8.698;2022-11-30T12:26:33;12.57;;;7.28;;
4812;SDS011;2420;51.202;8.698;2022-11-30T12:29:15;14.57;;;6.68;;
4812;SDS011;2420;51.202;8.698;2022-11-30T12:34:47;11.80;;;6.38;;
4812;SDS011;2420;51.202;8.698;2022-11-30T12:45:43;13.05;;;7.15;;
4812;SDS011;2420;51.202;8.698;2022-11-30T12:53:57;15.27;;;7.63;;
4812;SDS011;2420;51.202;8.698;2022-11-30T12:56:34;14.90;;;7.90;;
4812;SDS011;2420;51.202;8.698;2022-11-30T13:05:37;12.98;;;7.18;;
4812;SDS011;2420;51.202;8.698;2022-11-30T13:10:48;14.18;;;6.88;;
4812;SDS011;2420;51.202;8.698;2022-11-30T13:13:20;12.43;;;7.00;;
4812;SDS011;2420;51.202;8.698;2022-11-30T13:15:50;11.55;;;6.28;;
4812;SDS011;2420;51.202;8.698;2022-11-30T13:18:16;12.07;;;6.00;;
4812;SDS011;2420;51.202;8.698;2022-11-30T13:20:49;11.88;;;6.15;;
4812;SDS011;2420;51.202;8.698;2022-11-30T13:23:23;15.00;;;7.40;;
4812;SDS011;2420;51.202;8.698;2022-11-30T13:26:09;18.20;;;9.30;;
4812;SDS011;2420;51.202;8.698;2022-11-30T13:28:54;14.93;;;7.55;;
4812;SDS011;2420;51.202;8.698;2022-11-30T13:31:50;14.45;;;7.30;;
4812;SDS011;2420;51.202;8.698;2022-11-30T13:34:27;14.02;;;7.22;;
4812;SDS011;2420;51.202;8.698;2022-11-30T13:39:53;14.75;;;7.03;;
4812;SDS011;2420;51.202;8.698;2022-11-30T13:45:24;12.00;;;6.40;;
4812;SDS011;2420;51.202;8.698;2022-11-30T13:47:52;13.32;;;6.38;;
4812;SDS011;2420;51.202;8.698;2022-11-30T13:50:24;12.40;;;6.43;;
4812;SDS011;2420;51.202;8.698;2022-11-30T13:58:12;11.18;;;6.35;;
4812;SDS011;2420;51.202;8.698;2022-11-30T14:03:16;12.70;;;6.55;;
4812;SDS011;2420;51.202;8.698;2022-11-30T14:05:45;13.05;;;6.88;;
4812;SDS011;2420;51.202;8.698;2022-11-30T14:10:47;12.43;;;6.97;;
4812;SDS011;2420;51.202;8.698;2022-11-30T14:20:46;13.07;;;7.40;;
4812;SDS011;2420;51.202;8.698;2022-11-30T14:23:34;12.95;;;6.68;;
4812;SDS011;2420;51.202;8.698;2022-11-30T14:26:26;12.68;;;7.32;;
4812;SDS011;2420;51.202;8.698;2022-11-30T14:34:28;11.65;;;6.70;;
4812;SDS011;2420;51.202;8.698;2022-11-30T14:37:00;11.40;;;6.32;;
4812;SDS011;2420;51.202;8.698;2022-11-30T14:39:37;10.60;;;6.30;;
4812;SDS011;2420;51.202;8.698;2022-11-30T14:44:45;10.50;;;6.10;;
4812;SDS011;2420;51.202;8.698;2022-11-30T14:47:31;10.70;;;6.63;;
4812;SDS011;2420;51.202;8.698;2022-11-30T14:49:59;9.93;;;6.57;;
4812;SDS011;2420;51.202;8.698;2022-11-30T14:52:37;11.75;;;6.65;;
4812;SDS011;2420;51.202;8.698;2022-11-30T14:55:31;12.18;;;6.35;;
4812;SDS011;2420;51.202;8.698;2022-11-30T14:58:05;11.88;;;7.20;;
4812;SDS011;2420;51.202;8.698;2022-11-30T15:00:46;11.07;;;6.70;;
4812;SDS011;2420;51.202;8.698;2022-11-30T15:03:33;10.57;;;6.35;;
4812;SDS011;2420;51.202;8.698;2022-11-30T15:06:02;11.93;;;6.70;;
4812;SDS011;2420;51.202;8.698;2022-11-30T15:08:32;11.05;;;6.60;;
4812;SDS011;2420;51.202;8.698;2022-11-30T15:11:05;11.25;;;6.80;;
4812;SDS011;2420;51.202;8.698;2022-11-30T15:13:36;13.38;;;7.25;;
4812;SDS011;2420;51.202;8.698;2022-11-30T15:16:07;14.65;;;6.80;;
4812;SDS011;2420;51.202;8.698;2022-11-30T15:18:40;12.10;;;6.93;;
4812;SDS011;2420;51.202;8.698;2022-11-30T15:21:06;12.38;;;6.78;;
4812;SDS011;2420;51.202;8.698;2022-11-30T15:23:36;12.30;;;7.05;;
4812;SDS011;2420;51.202;8.698;2022-11-30T15:26:10;13.50;;;7.97;;
4812;SDS011;2420;51.202;8.698;2022-11-30T15:28:43;12.07;;;7.22;;
4812;SDS011;2420;51.202;8.698;2022-11-30T15:31:18;11.13;;;6.55;;
4812;SDS011;2420;51.202;8.698;2022-11-30T15:33:45;10.73;;;6.60;;
4812;SDS011;2420;51.202;8.698;2022-11-30T15:36:12;10.57;;;6.63;;
4812;SDS011;2420;51.202;8.698;2022-11-30T15:38:39;10.55;;;6.60;;
4812;SDS011;2420;51.202;8.698;2022-11-30T15:41:26;11.32;;;6.47;;
4812;SDS011;2420;51.202;8.698;2022-11-30T15:43:55;12.48;;;7.25;;
4812;SDS011;2420;51.202;8.698;2022-11-30T15:46:26;11.32;;;6.90;;
4812;SDS011;2420;51.202;8.698;2022-11-30T15:49:02;10.70;;;6.78;;
4812;SDS011;2420;51.202;8.698;2022-11-30T15:51:40;12.07;;;7.07;;
4812;SDS011;2420;51.202;8.698;2022-11-30T15:54:08;12.25;;;6.95;;
4812;SDS011;2420;51.202;8.698;2022-11-30T15:56:34;11.65;;;7.63;;
4812;SDS011;2420;51.202;8.698;2022-11-30T16:01:25;12.18;;;7.43;;
4812;SDS011;2420;51.202;8.698;2022-11-30T16:06:21;12.52;;;6.72;;
4812;SDS011;2420;51.202;8.698;2022-11-30T16:08:47;13.85;;;7.57;;
4812;SDS011;2420;51.202;8.698;2022-11-30T16:11:14;11.82;;;6.68;;
4812;SDS011;2420;51.202;8.698;2022-11-30T16:13:41;11.57;;;6.88;;
4812;SDS011;2420;51.202;8.698;2022-11-30T16:16:11;14.10;;;7.70;;
4812;SDS011;2420;51.202;8.698;2022-11-30T16:18:48;13.07;;;7.30;;
4812;SDS011;2420;51.202;8.698;2022-11-30T16:21:14;13.85;;;6.85;;
4812;SDS011;2420;51.202;8.698;2022-11-30T16:23:42;12.75;;;7.28;;
4812;SDS011;2420;51.202;8.698;2022-11-30T16:26:11;12.65;;;6.90;;
4812;SDS011;2420;51.202;8.698;2022-11-30T16:28:38;17.02;;;7.43;;
4812;SDS011;2420;51.202;8.698;2022-11-30T16:31:04;12.85;;;7.13;;
4812;SDS011;2420;51.202;8.698;2022-11-30T16:33:29;16.23;;;8.30;;
4812;SDS011;2420;51.202;8.698;2022-11-30T16:36:02;13.93;;;7.15;;
4812;SDS011;2420;51.202;8.698;2022-11-30T16:38:32;16.17;;;7.55;;
4812;SDS011;2420;51.202;8.698;2022-11-30T16:41:14;14.50;;;7.88;;
4812;SDS011;2420;51.202;8.698;2022-11-30T16:43:44;16.15;;;8.35;;
4812;SDS011;2420;51.202;8.698;2022-11-30T16:46:13;18.13;;;10.63;;
4812;SDS011;2420;51.202;8.698;2022-11-30T16:48:40;17.73;;;8.75;;
4812;SDS011;2420;51.202;8.698;2022-11-30T16:53:55;17.45;;;8.55;;
4812;SDS011;2420;51.202;8.698;2022-11-30T16:56:21;15.48;;;8.05;;
4812;SDS011;2420;51.202;8.698;2022-11-30T16:58:47;16.48;;;7.70;;
4812;SDS011;2420;51.202;8.698;2022-11-30T17:01:17;14.40;;;7.50;;
4812;SDS011;2420;51.202;8.698;2022-11-30T17:03:49;14.23;;;7.22;;
4812;SDS011;2420;51.202;8.698;2022-11-30T17:06:17;15.68;;;7.20;;
4812;SDS011;2420;51.202;8.698;2022-11-30T17:08:44;17.00;;;8.20;;
4812;SDS011;2420;51.202;8.698;2022-11-30T17:11:14;17.38;;;8.25;;